createdAt,value
2018-03-31T00:00:56.286Z,74.10
2018-03-31T00:05:58.441Z,73.70
2018-03-31T00:11:00.589Z,74.00
2018-03-31T00:16:02.747Z,73.50
2018-03-31T00:21:05.649Z,74.20
2018-03-31T00:26:07.801Z,74.10
2018-03-31T00:31:09.937Z,74.60
2018-03-31T00:36:12.099Z,74.40
2018-03-31T00:41:14.249Z,74.60
2018-03-31T00:46:17.157Z,74.50
2018-03-31T00:51:19.309Z,74.40
2018-03-31T00:56:21.449Z,74.40
2018-03-31T01:01:23.601Z,75.10
2018-03-31T01:06:26.507Z,74.50
2018-03-31T01:11:28.672Z,74.50
2018-03-31T01:16:30.826Z,75.90
2018-03-31T01:21:33.741Z,75.40
2018-03-31T01:26:35.873Z,75.40
2018-03-31T01:31:41.557Z,75.60
2018-03-31T01:36:43.691Z,75.70
2018-03-31T01:41:45.831Z,75.90
2018-03-31T01:46:47.981Z,75.70
2018-03-31T01:51:50.137Z,75.90
2018-03-31T01:56:52.278Z,75.80
2018-03-31T02:01:54.442Z,75.60
2018-03-31T02:06:57.365Z,75.30
2018-03-31T02:11:59.502Z,74.80
2018-03-31T02:17:01.657Z,75.40
2018-03-31T02:22:03.813Z,75.80
2018-03-31T02:27:06.719Z,75.40
2018-03-31T02:32:08.877Z,75.30
2018-03-31T02:37:11.011Z,75.40
2018-03-31T02:42:13.142Z,76.00
2018-03-31T02:47:15.278Z,76.60
2018-03-31T02:52:18.073Z,76.00
2018-03-31T02:57:20.206Z,75.30
2018-03-31T03:02:22.345Z,75.90
2018-03-31T03:07:24.503Z,75.30
2018-03-31T03:12:26.657Z,75.40
2018-03-31T03:17:28.798Z,75.00
2018-03-31T03:22:30.946Z,75.80
2018-03-31T03:27:33.099Z,76.10
2018-03-31T03:32:35.993Z,76.00
2018-03-31T03:37:38.155Z,75.80
2018-03-31T03:42:40.309Z,76.80
2018-03-31T03:47:42.446Z,76.50
2018-03-31T03:52:44.593Z,76.70
2018-03-31T03:57:47.518Z,76.20
2018-03-31T04:02:49.670Z,76.20
2018-03-31T04:07:51.825Z,76.40
2018-03-31T04:13:00.257Z,77.10
2018-03-31T04:18:02.418Z,77.00
2018-03-31T04:23:04.564Z,77.30
2018-03-31T04:28:06.699Z,77.70
2018-03-31T04:33:08.856Z,78.40
2018-03-31T04:38:11.769Z,77.50
2018-03-31T04:43:13.905Z,77.50
2018-03-31T04:48:16.059Z,76.30
2018-03-31T04:53:18.194Z,76.90
2018-03-31T04:58:20.342Z,76.60
2018-03-31T05:03:23.237Z,77.60
2018-03-31T05:08:25.398Z,77.60
2018-03-31T05:13:27.534Z,77.50
2018-03-31T05:18:29.693Z,76.90
2018-03-31T05:23:32.585Z,76.40
2018-03-31T05:28:34.718Z,76.80
2018-03-31T05:33:36.866Z,77.20
2018-03-31T05:38:40.926Z,76.90
2018-03-31T05:43:43.063Z,77.40
2018-03-31T05:48:45.213Z,77.20
2018-03-31T05:53:47.341Z,78.00
2018-03-31T05:58:49.487Z,78.10
2018-03-31T06:03:51.622Z,77.60
2018-03-31T06:08:53.801Z,77.40
2018-03-31T06:13:55.930Z,77.60
2018-03-31T06:18:58.109Z,77.50
2018-03-31T06:24:00.245Z,77.00
2018-03-31T06:29:02.383Z,77.20
2018-03-31T06:34:04.535Z,76.90
2018-03-31T06:39:06.699Z,76.90
2018-03-31T06:44:08.829Z,77.20
2018-03-31T06:49:10.981Z,76.30
2018-03-31T06:54:13.167Z,76.70
2018-03-31T06:59:15.330Z,76.50
2018-03-31T07:04:17.463Z,76.10
2018-03-31T07:09:19.622Z,76.10
2018-03-31T07:14:21.763Z,76.40
2018-03-31T07:19:23.918Z,75.90
2018-03-31T07:24:26.835Z,76.50
2018-03-31T07:29:28.990Z,76.50
2018-03-31T07:34:31.893Z,76.20
2018-03-31T07:39:34.050Z,75.80
2018-03-31T07:44:36.177Z,76.00
2018-03-31T07:49:40.223Z,75.80
2018-03-31T07:54:42.353Z,75.90
2018-03-31T07:59:44.508Z,75.70
2018-03-31T08:04:46.646Z,75.80
2018-03-31T08:09:54.319Z,75.70
2018-03-31T08:15:10.069Z,76.40
2018-03-31T08:20:12.217Z,76.20
2018-03-31T08:25:14.364Z,76.10
2018-03-31T08:30:16.513Z,77.00
2018-03-31T08:35:18.651Z,77.80
2018-03-31T08:40:20.798Z,76.60
2018-03-31T08:45:23.893Z,77.20
2018-03-31T08:50:26.054Z,76.50
2018-03-31T08:55:28.192Z,77.40
2018-03-31T09:00:30.358Z,76.40
2018-03-31T09:11:00.281Z,77.80
2018-03-31T09:16:02.409Z,78.60
2018-03-31T09:21:04.565Z,79.10
2018-03-31T09:26:26.002Z,79.20
2018-03-31T09:31:29.113Z,80.00
2018-03-31T09:36:31.256Z,80.00
2018-03-31T09:41:34.427Z,80.00
2018-03-31T09:46:36.635Z,80.40
2018-03-31T09:51:39.502Z,82.00
2018-03-31T09:56:41.658Z,81.90
2018-03-31T10:01:43.803Z,82.10
2018-03-31T10:06:45.955Z,82.50
2018-03-31T10:11:48.865Z,81.80
2018-03-31T10:16:54.164Z,81.80
2018-03-31T10:21:56.334Z,81.70
2018-03-31T10:26:58.469Z,82.60
2018-03-31T10:32:00.615Z,81.80
2018-03-31T10:37:02.762Z,82.60
2018-03-31T10:42:05.690Z,82.80
2018-03-31T10:47:07.849Z,82.80
2018-03-31T10:52:10.777Z,83.30
2018-03-31T10:57:13.769Z,83.20
2018-03-31T11:02:16.604Z,82.80
2018-03-31T11:07:19.414Z,82.70
2018-03-31T11:12:21.363Z,82.60
2018-03-31T11:17:23.300Z,84.10
2018-03-31T11:22:25.229Z,83.40
2018-03-31T11:27:27.172Z,84.10
2018-03-31T11:32:29.109Z,84.50
2018-03-31T11:37:32.128Z,84.00
2018-03-31T11:47:59.729Z,84.90
2018-03-31T11:53:01.662Z,85.50
2018-03-31T11:58:03.594Z,83.70
2018-03-31T12:03:06.324Z,85.30
2018-03-31T12:08:08.313Z,85.20
2018-03-31T12:13:11.001Z,83.50
2018-03-31T12:18:14.953Z,83.40
2018-03-31T12:23:16.984Z,83.40
2018-03-31T12:28:18.907Z,84.40
2018-03-31T12:33:30.349Z,84.00
2018-03-31T12:43:52.862Z,84.10
2018-03-31T12:48:54.807Z,83.50
2018-03-31T13:04:50.539Z,85.30
2018-03-31T13:09:52.465Z,86.20
2018-03-31T13:15:47.932Z,86.20
2018-03-31T13:20:49.856Z,85.20
2018-03-31T13:25:52.536Z,84.60
2018-03-31T13:30:54.462Z,84.80
2018-03-31T13:35:56.381Z,84.50
2018-03-31T13:40:59.073Z,84.50
2018-03-31T13:46:00.994Z,84.40
2018-03-31T13:51:02.925Z,84.90
2018-03-31T13:56:04.853Z,85.30
2018-03-31T14:01:06.786Z,85.00
2018-03-31T14:06:08.718Z,85.00
2018-03-31T14:11:10.637Z,85.20
2018-03-31T14:16:13.332Z,85.00
2018-03-31T14:21:15.253Z,84.90
2018-03-31T14:26:17.176Z,85.00
2018-03-31T14:31:19.866Z,86.10
2018-03-31T14:36:22.914Z,86.10
2018-03-31T14:41:24.867Z,85.80
2018-03-31T14:46:26.810Z,86.10
2018-03-31T14:51:28.785Z,85.90
2018-03-31T14:56:30.716Z,86.70
2018-03-31T15:01:34.695Z,85.60
2018-03-31T15:06:37.388Z,86.20
2018-03-31T15:11:39.317Z,86.20
2018-03-31T15:16:41.270Z,86.50
2018-03-31T15:21:43.215Z,86.70
2018-03-31T15:26:45.138Z,86.60
2018-03-31T15:31:47.838Z,86.10
2018-03-31T15:36:50.534Z,86.10
2018-03-31T15:41:54.497Z,86.10
2018-03-31T15:46:56.425Z,87.50
2018-03-31T15:51:58.359Z,88.10
2018-03-31T15:57:00.297Z,87.40
2018-03-31T16:02:02.229Z,87.20
2018-03-31T16:07:04.161Z,88.50
2018-03-31T16:12:08.098Z,88.10
2018-03-31T16:17:10.057Z,87.50
2018-03-31T16:22:12.741Z,88.50
2018-03-31T16:27:14.736Z,88.40
2018-03-31T16:32:17.394Z,88.90
2018-03-31T16:37:19.321Z,88.90
2018-03-31T16:42:21.250Z,88.40
2018-03-31T16:47:23.942Z,89.10
2018-03-31T16:52:25.869Z,89.70
2018-03-31T16:57:28.562Z,87.50
2018-03-31T17:02:30.492Z,87.50
2018-03-31T17:07:32.430Z,88.10
2018-03-31T17:12:37.476Z,88.80
2018-03-31T17:17:39.471Z,88.60
2018-03-31T17:22:43.260Z,89.50
2018-03-31T17:27:45.232Z,89.50
2018-03-31T17:32:47.172Z,90.40
2018-03-31T17:37:49.319Z,90.80
2018-03-31T17:42:52.332Z,90.90
2018-03-31T17:47:54.324Z,90.10
2018-03-31T17:52:57.418Z,91.20
2018-03-31T17:57:59.384Z,91.20
2018-03-31T18:03:02.237Z,91.20
2018-03-31T18:08:04.276Z,91.20
2018-03-31T18:13:06.204Z,90.80
2018-03-31T18:18:08.371Z,90.80
2018-03-31T18:23:10.302Z,90.40
2018-03-31T18:28:12.225Z,90.40
2018-03-31T18:33:14.145Z,90.30
2018-03-31T18:38:16.833Z,90.70
2018-03-31T18:43:18.752Z,90.70
2018-03-31T18:48:20.678Z,90.30
2018-03-31T18:53:22.605Z,90.50
2018-03-31T18:58:26.298Z,91.20
2018-03-31T19:03:28.245Z,91.20
2018-03-31T19:08:31.011Z,91.20
2018-03-31T19:13:32.957Z,91.20
2018-03-31T19:18:34.884Z,91.10
2018-03-31T19:23:37.687Z,91.40
2018-03-31T19:28:39.940Z,90.50
2018-03-31T19:33:42.857Z,90.90
2018-03-31T19:38:45.286Z,90.80
2018-03-31T19:43:47.504Z,91.00
2018-03-31T19:48:50.411Z,91.50
2018-03-31T19:53:52.590Z,91.50
2018-03-31T19:58:54.734Z,91.40
2018-03-31T20:03:56.891Z,91.90
2018-03-31T20:08:59.042Z,91.50
2018-03-31T20:14:01.207Z,91.00
2018-03-31T20:19:03.562Z,91.30
2018-03-31T20:24:05.721Z,91.20
2018-03-31T20:29:08.642Z,91.30
2018-03-31T20:34:12.565Z,91.30
2018-03-31T20:39:14.707Z,91.20
2018-03-31T20:44:17.629Z,91.40
2018-03-31T20:49:19.779Z,91.40
2018-03-31T20:54:21.928Z,91.10
2018-03-31T20:59:24.073Z,91.20
2018-03-31T21:04:26.238Z,92.20
2018-03-31T21:09:28.390Z,92.10
2018-03-31T21:14:30.555Z,91.70
2018-03-31T21:19:33.623Z,91.90
2018-03-31T21:24:35.777Z,91.70
2018-03-31T21:29:37.924Z,91.10
2018-03-31T21:34:40.071Z,91.20
2018-03-31T21:39:42.229Z,91.10
2018-03-31T21:44:45.146Z,92.10
2018-03-31T21:49:48.074Z,92.10
2018-03-31T21:54:50.233Z,92.20
2018-03-31T21:59:52.394Z,92.10
2018-03-31T22:04:54.535Z,92.20
2018-03-31T22:09:56.700Z,91.90
2018-03-31T22:15:04.402Z,92.00
2018-03-31T22:20:06.558Z,91.90
2018-03-31T22:25:08.714Z,91.80
2018-03-31T22:30:10.866Z,92.10
2018-03-31T22:35:13.005Z,92.30
2018-03-31T22:40:15.162Z,92.30
2018-03-31T22:45:17.306Z,92.30
2018-03-31T22:50:19.460Z,92.20
2018-03-31T22:55:22.362Z,92.30
2018-03-31T23:00:24.513Z,92.20
2018-03-31T23:05:26.647Z,92.20
2018-03-31T23:10:28.803Z,92.60
2018-03-31T23:15:30.937Z,92.30
2018-03-31T23:20:33.859Z,92.60
2018-03-31T23:25:36.786Z,92.60
2018-03-31T23:30:39.695Z,92.50
2018-03-31T23:35:41.855Z,92.50
2018-03-31T23:40:43.992Z,92.50
2018-03-31T23:45:46.150Z,92.50
2018-03-31T23:50:48.294Z,92.50
2018-03-31T23:55:50.453Z,92.50
